TimeCEST,TemperatureF,Dew PointF,Humidity,Sea Level PressureIn,VisibilityMPH,Wind Direction,Wind SpeedMPH,Gust SpeedMPH,PrecipitationIn,Events,Conditions,WindDirDegrees,DateUTC
2:00 AM,61,58,88,30.01,7,NE,1.2,,,,,40,2012-10-04 00:00:00
5:00 AM,59.0,57.2,94,29.98,-9999.0,Variable,1.2,-,N/A,,Clear,0,2012-10-04 03:00:00
5:30 AM,59.0,55.4,88,29.95,-9999.0,Calm,Calm,-,N/A,,Clear,0,2012-10-04 03:30:00
6:00 AM,59.0,57.2,94,29.95,-9999.0,Calm,Calm,-,N/A,,Clear,0,2012-10-04 04:00:00
6:30 AM,59.0,57.2,94,29.95,-9999.0,Variable,1.2,-,N/A,,Clear,0,2012-10-04 04:30:00
7:00 AM,57.2,55.4,94,29.95,-9999.0,Calm,Calm,-,N/A,,Clear,0,2012-10-04 05:00:00
7:30 AM,57.2,55.4,94,29.95,-9999.0,Calm,Calm,-,N/A,,Clear,0,2012-10-04 05:30:00
8:00 AM,56,56,100,29.98,31,Calm,Calm,,,,,,2012-10-04 06:00:00
8:00 AM,57.2,55.4,94,29.98,-9999.0,Calm,Calm,-,N/A,,Clear,0,2012-10-04 06:00:00
8:30 AM,57.2,55.4,94,29.98,-9999.0,Variable,2.3,-,N/A,,Clear,0,2012-10-04 06:30:00
9:00 AM,59.0,57.2,94,29.98,-9999.0,Variable,1.2,-,N/A,,Clear,0,2012-10-04 07:00:00
9:30 AM,60.8,57.2,88,29.98,-9999.0,Calm,Calm,-,N/A,,Clear,0,2012-10-04 07:30:00
10:00 AM,64.4,59.0,83,29.98,-9999.0,Variable,1.2,-,N/A,,Clear,0,2012-10-04 08:00:00
10:30 AM,66.2,59.0,78,29.98,-9999.0,Calm,Calm,-,N/A,,Clear,0,2012-10-04 08:30:00
11:00 AM,71.6,59.0,64,29.98,-9999.0,Variable,1.2,-,N/A,,Clear,0,2012-10-04 09:00:00
11:30 AM,75.2,57.2,53,29.98,-9999.0,East,5.8,-,N/A,,Clear,100,2012-10-04 09:30:00
12:00 PM,77.0,57.2,50,29.98,-9999.0,ENE,4.6,-,N/A,,Clear,60,2012-10-04 10:00:00
12:30 PM,78.8,59.0,51,29.98,-9999.0,East,3.5,-,N/A,,Clear,90,2012-10-04 10:30:00
1:00 PM,82.4,57.2,42,29.95,-9999.0,ENE,4.6,-,N/A,,Clear,70,2012-10-04 11:00:00
1:30 PM,84.2,53.6,35,29.95,-9999.0,ENE,3.5,-,N/A,,Clear,60,2012-10-04 11:30:00
2:00 PM,86,59,30,29.95,37,NNW,1.2,,,,Clear,340,2012-10-04 12:00:00
2:00 PM,86.0,53.6,33,29.95,-9999.0,Variable,1.2,-,N/A,,Clear,0,2012-10-04 12:00:00
2:30 PM,84.2,53.6,35,29.95,-9999.0,Variable,2.3,-,N/A,,Clear,0,2012-10-04 12:30:00
3:00 PM,86.0,55.4,35,29.92,-9999.0,Variable,2.3,-,N/A,,Clear,0,2012-10-04 13:00:00
3:30 PM,86.0,53.6,33,29.92,-9999.0,Variable,2.3,-,N/A,,Clear,0,2012-10-04 13:30:00
4:00 PM,87.8,53.6,31,29.92,-9999.0,Variable,2.3,-,N/A,,Clear,0,2012-10-04 14:00:00
4:30 PM,87.8,51.8,29,29.92,-9999.0,Variable,1.2,-,N/A,,Clear,0,2012-10-04 14:30:00
5:00 PM,87.8,50.0,27,29.89,-9999.0,South,4.6,-,N/A,,Clear,190,2012-10-04 15:00:00
5:30 PM,87.8,50.0,27,29.89,-9999.0,Variable,1.2,-,N/A,,Clear,0,2012-10-04 15:30:00
6:00 PM,86.0,57.2,37,29.89,-9999.0,SSW,5.8,-,N/A,,Clear,200,2012-10-04 16:00:00
6:30 PM,86.0,57.2,37,29.89,-9999.0,SSW,6.9,-,N/A,,Clear,200,2012-10-04 16:30:00
7:00 PM,84.2,60.8,45,29.89,-9999.0,SSW,5.8,-,N/A,,Clear,210,2012-10-04 17:00:00
7:30 PM,80.6,62.6,54,29.89,-9999.0,SSW,10.4,-,N/A,,Clear,210,2012-10-04 17:30:00
8:00 PM,77,64,55,29.91,37,SSW,9.2,,,,Clear,210,2012-10-04 18:00:00
8:00 PM,77.0,62.6,61,29.89,-9999.0,SSW,9.2,-,N/A,,Clear,200,2012-10-04 18:00:00
8:30 PM,75.2,62.6,65,29.89,-9999.0,SSW,6.9,-,N/A,,Clear,210,2012-10-04 18:30:00
9:00 PM,73.4,60.8,65,29.92,-9999.0,Variable,2.3,-,N/A,,Clear,0,2012-10-04 19:00:00
9:30 PM,73.4,57.2,57,29.92,-9999.0,Variable,2.3,-,N/A,,Clear,0,2012-10-04 19:30:00
10:00 PM,71.6,57.2,60,29.92,-9999.0,SSW,3.5,-,N/A,,Clear,200,2012-10-04 20:00:00
10:30 PM,69.8,57.2,64,29.95,-9999.0,Variable,1.2,-,N/A,,Clear,0,2012-10-04 20:30:00
11:00 PM,68.0,59.0,73,29.95,-9999.0,SSW,3.5,-,N/A,,Clear,210,2012-10-04 21:00:00